createdAt,value
2023-02-24T00:02:06.230Z,18.73
2023-02-24T00:04:38.577Z,17.10
2023-02-24T00:07:06.769Z,16.40
2023-02-24T00:09:34.487Z,17.30
2023-02-24T00:12:09.055Z,19.08
2023-02-24T00:14:38.381Z,14.10
2023-02-24T00:17:08.399Z,16.90
2023-02-24T00:19:36.635Z,16.20
2023-02-24T00:22:05.354Z,19.90
2023-02-24T00:24:32.762Z,15.40
2023-02-24T00:27:02.557Z,16.17
2023-02-24T00:29:32.591Z,18.00
2023-02-24T00:32:00.150Z,15.63
2023-02-24T00:34:33.710Z,17.85
2023-02-24T00:37:00.964Z,18.35
2023-02-24T00:39:30.612Z,17.42
2023-02-24T00:42:04.714Z,19.83
2023-02-24T00:44:45.290Z,18.25
2023-02-24T00:47:13.817Z,14.93
2023-02-24T00:49:44.263Z,17.55
2023-02-24T00:52:14.022Z,16.40
2023-02-24T00:54:42.238Z,14.77
2023-02-24T00:57:10.765Z,15.77
2023-02-24T00:59:39.189Z,16.40
2023-02-24T01:02:07.458Z,18.83
2023-02-24T01:04:35.499Z,20.10
2023-02-24T01:07:02.717Z,17.95
2023-02-24T01:09:32.576Z,19.75
2023-02-24T01:12:18.240Z,17.88
2023-02-24T01:14:47.979Z,21.55
2023-02-24T01:17:16.447Z,18.08
2023-02-24T01:19:44.752Z,21.40
2023-02-24T01:22:15.413Z,21.17
2023-02-24T01:24:44.190Z,18.95
2023-02-24T01:27:14.273Z,22.77
2023-02-24T01:29:43.561Z,20.15
2023-02-24T01:32:17.393Z,19.25
2023-02-24T01:34:45.364Z,22.08
2023-02-24T01:37:16.721Z,18.33
2023-02-24T01:39:44.837Z,20.42
2023-02-24T01:42:20.307Z,17.70
2023-02-24T01:44:47.827Z,16.92
2023-02-24T01:47:18.408Z,17.45
2023-02-24T01:49:48.101Z,17.05
2023-02-24T01:52:25.747Z,16.30
2023-02-24T01:55:06.763Z,22.40
2023-02-24T01:57:38.942Z,20.42
2023-02-24T02:00:12.010Z,20.73
2023-02-24T02:02:46.610Z,20.77
2023-02-24T02:05:14.998Z,19.97
2023-02-24T02:07:43.572Z,25.05
2023-02-24T02:10:12.447Z,22.60
2023-02-24T02:12:45.671Z,20.10
2023-02-24T02:15:15.672Z,16.90
2023-02-24T02:17:55.547Z,22.00
2023-02-24T02:20:42.893Z,21.00
2023-02-24T02:23:33.375Z,22.77
2023-02-24T02:26:19.010Z,18.38
2023-02-24T02:28:55.112Z,18.52
2023-02-24T02:31:46.654Z,18.70
2023-02-24T02:34:34.415Z,14.27
2023-02-24T02:37:08.221Z,17.58
2023-02-24T02:39:41.393Z,20.20
2023-02-24T02:44:57.155Z,17.40
2023-02-24T02:47:50.674Z,18.93
2023-02-24T02:50:28.148Z,19.33
2023-02-24T02:53:05.318Z,13.70
2023-02-24T02:55:40.800Z,17.65
2023-02-24T02:58:14.879Z,15.88
2023-02-24T03:00:59.079Z,15.25
2023-02-24T03:03:28.101Z,16.65
2023-02-24T03:06:01.698Z,16.98
2023-02-24T03:08:34.418Z,14.00
2023-02-24T03:11:05.670Z,16.92
2023-02-24T03:13:39.380Z,18.25
2023-02-24T03:16:11.071Z,20.33
2023-02-24T03:18:53.140Z,16.85
2023-02-24T03:21:38.784Z,16.02
2023-02-24T03:24:07.235Z,19.23
2023-02-24T03:26:41.554Z,18.70
2023-02-24T03:29:37.533Z,19.98
2023-02-24T03:32:33.777Z,13.23
2023-02-24T03:35:13.335Z,17.08
2023-02-24T03:37:41.269Z,14.27
2023-02-24T03:40:14.685Z,17.58
2023-02-24T03:42:52.727Z,15.52
2023-02-24T03:45:23.342Z,19.42
2023-02-24T03:47:54.196Z,16.65
2023-02-24T03:50:22.267Z,20.45
2023-02-24T03:53:08.401Z,18.63
2023-02-24T03:55:58.949Z,16.58
2023-02-24T03:58:52.294Z,16.13
2023-02-24T04:01:31.096Z,17.30
2023-02-24T04:04:23.341Z,19.33
2023-02-24T04:07:52.849Z,18.88
2023-02-24T04:10:24.420Z,16.33
2023-02-24T04:12:55.120Z,13.98
2023-02-24T04:15:29.714Z,17.33
2023-02-24T04:18:04.913Z,16.25
2023-02-24T04:20:40.077Z,19.00
2023-02-24T04:23:15.048Z,16.48
2023-02-24T04:25:47.824Z,20.63
2023-02-24T04:28:19.088Z,20.48
2023-02-24T04:30:50.984Z,20.20
2023-02-24T04:33:19.598Z,18.63
2023-02-24T04:35:50.627Z,17.70
2023-02-24T04:38:19.673Z,18.70
2023-02-24T04:40:46.913Z,16.55
2023-02-24T04:43:14.156Z,20.33
2023-02-24T04:45:41.222Z,18.75
2023-02-24T04:48:13.114Z,16.58
2023-02-24T04:50:43.029Z,16.00
2023-02-24T04:53:17.520Z,20.27
2023-02-24T04:55:49.077Z,15.23
2023-02-24T04:58:19.643Z,18.90
2023-02-24T05:00:49.198Z,19.35
2023-02-24T05:03:17.543Z,21.83
2023-02-24T05:05:58.337Z,23.20
2023-02-24T05:08:27.323Z,22.98
2023-02-24T05:10:54.926Z,19.83
2023-02-24T05:13:28.166Z,18.17
2023-02-24T05:15:58.257Z,18.15
2023-02-24T05:18:26.415Z,21.33
2023-02-24T05:21:14.097Z,20.35
2023-02-24T05:23:46.953Z,16.27
2023-02-24T05:26:17.279Z,24.10
2023-02-24T05:28:49.497Z,22.35
2023-02-24T05:31:22.245Z,20.35
2023-02-24T05:33:54.720Z,22.05
2023-02-24T05:36:22.801Z,25.25
2023-02-24T05:38:57.990Z,22.63
2023-02-24T05:41:36.138Z,21.45
2023-02-24T05:44:08.670Z,21.70
2023-02-24T05:46:40.231Z,20.15
2023-02-24T05:49:14.485Z,22.05
2023-02-24T05:51:54.696Z,25.42
2023-02-24T05:54:30.242Z,20.40
2023-02-24T05:57:02.787Z,26.08
2023-02-24T05:59:33.378Z,22.05
2023-02-24T06:02:07.367Z,24.25
2023-02-24T06:04:45.945Z,26.27
2023-02-24T06:07:20.999Z,23.75
2023-02-24T06:09:53.801Z,25.35
2023-02-24T06:12:33.876Z,27.48
2023-02-24T06:15:02.414Z,25.13
2023-02-24T06:17:29.777Z,24.10
2023-02-24T06:19:56.993Z,25.52
2023-02-24T06:22:25.812Z,24.73
2023-02-24T06:24:54.833Z,24.40
2023-02-24T06:27:25.377Z,25.42
2023-02-24T06:29:54.512Z,26.23
2023-02-24T06:32:24.789Z,27.58
2023-02-24T06:34:54.057Z,27.85
2023-02-24T06:37:23.331Z,28.98
2023-02-24T06:39:50.699Z,35.28
2023-02-24T06:42:17.816Z,36.00
2023-02-24T06:44:45.403Z,36.22
2023-02-24T06:47:14.619Z,43.30
2023-02-24T06:49:43.006Z,44.85
2023-02-24T06:52:11.800Z,35.22
2023-02-24T06:54:39.122Z,34.28
2023-02-24T06:57:06.800Z,34.72
2023-02-24T06:59:34.367Z,39.20
2023-02-24T07:02:04.661Z,36.78
2023-02-24T07:04:43.630Z,37.75
2023-02-24T07:07:11.476Z,27.52
2023-02-24T07:09:38.522Z,29.45
2023-02-24T07:12:08.150Z,31.65
2023-02-24T07:14:37.160Z,31.75
2023-02-24T07:17:05.876Z,35.33
2023-02-24T07:19:33.011Z,26.77
2023-02-24T07:22:03.648Z,26.75
2023-02-24T07:24:37.048Z,28.52
2023-02-24T07:27:08.678Z,30.80
2023-02-24T07:29:40.102Z,26.80
2023-02-24T07:32:09.318Z,32.15
2023-02-24T07:34:40.386Z,28.00
2023-02-24T07:37:09.205Z,28.25
2023-02-24T07:39:39.999Z,27.42
2023-02-24T07:42:09.054Z,29.67
2023-02-24T07:44:45.153Z,33.15
2023-02-24T07:47:12.520Z,30.02
2023-02-24T07:49:41.173Z,30.25
2023-02-24T07:52:08.880Z,31.48
2023-02-24T07:54:37.218Z,33.58
2023-02-24T07:57:06.217Z,34.40
2023-02-24T07:59:37.657Z,26.45
2023-02-24T08:02:07.811Z,33.28
2023-02-24T08:04:36.518Z,33.88
2023-02-24T08:07:04.343Z,33.58
2023-02-24T08:09:46.725Z,31.50
2023-02-24T08:12:22.594Z,28.10
2023-02-24T08:14:53.802Z,33.85
2023-02-24T08:17:26.769Z,30.98
2023-02-24T08:20:15.739Z,35.13
2023-02-24T08:22:46.656Z,34.25
2023-02-24T08:25:18.905Z,33.88
2023-02-24T08:28:06.879Z,34.25
2023-02-24T08:30:38.939Z,34.92
2023-02-24T08:33:16.059Z,35.58
2023-02-24T08:35:46.860Z,33.95
2023-02-24T08:38:23.724Z,31.15
2023-02-24T08:40:55.197Z,31.05
2023-02-24T08:43:34.597Z,35.58
2023-02-24T08:46:14.004Z,29.75
2023-02-24T08:48:44.155Z,30.48
2023-02-24T08:51:23.014Z,33.25
2023-02-24T08:53:55.493Z,31.10
2023-02-24T08:56:25.950Z,35.80
2023-02-24T08:58:57.310Z,29.13
2023-02-24T09:01:34.877Z,30.80
2023-02-24T09:04:28.565Z,31.98
2023-02-24T09:07:10.748Z,26.70
2023-02-24T09:12:22.010Z,27.60
2023-02-24T09:14:55.643Z,29.48
2023-02-24T09:17:41.268Z,29.13
2023-02-24T09:20:31.049Z,35.20
2023-02-24T09:23:09.017Z,28.85
2023-02-24T09:25:43.673Z,33.28
2023-02-24T09:28:19.757Z,32.70
2023-02-24T09:30:53.593Z,32.72
2023-02-24T09:33:41.967Z,32.13
2023-02-24T09:36:20.405Z,32.30
2023-02-24T09:38:59.477Z,32.90
2023-02-24T09:41:53.598Z,28.73
2023-02-24T09:44:44.596Z,28.63
2023-02-24T09:47:45.719Z,30.08
2023-02-24T09:50:51.267Z,32.88
2023-02-24T09:53:18.601Z,32.97
2023-02-24T09:56:00.770Z,32.15
2023-02-24T09:58:49.503Z,31.70
2023-02-24T10:01:31.100Z,30.52
2023-02-24T10:04:20.249Z,34.17
2023-02-24T10:07:10.015Z,33.95
2023-02-24T10:09:46.495Z,33.70
2023-02-24T10:12:19.870Z,32.55
2023-02-24T10:15:20.833Z,31.65
2023-02-24T10:18:04.076Z,28.58
2023-02-24T10:20:40.357Z,27.88
2023-02-24T10:23:13.214Z,30.08
2023-02-24T10:25:56.400Z,31.67
2023-02-24T10:28:52.173Z,30.15
2023-02-24T10:31:35.877Z,30.85
2023-02-24T10:34:10.387Z,27.90
2023-02-24T10:36:39.252Z,30.80
2023-02-24T10:39:15.753Z,29.73
2023-02-24T10:41:49.338Z,32.15
2023-02-24T10:44:25.051Z,32.58
2023-02-24T10:47:14.186Z,33.53
2023-02-24T10:49:59.779Z,36.47
2023-02-24T10:52:50.597Z,33.72
2023-02-24T10:55:43.083Z,29.52
2023-02-24T10:58:45.000Z,33.10
2023-02-24T11:01:40.640Z,32.88
2023-02-24T11:04:33.419Z,34.72
2023-02-24T11:07:12.345Z,32.95
2023-02-24T11:09:52.829Z,31.92
2023-02-24T11:12:41.794Z,33.17
2023-02-24T11:15:43.432Z,32.47
2023-02-24T11:18:24.497Z,27.15
2023-02-24T11:21:03.192Z,30.30
2023-02-24T11:23:33.349Z,32.50
2023-02-24T11:26:04.809Z,31.35
2023-02-24T11:28:49.701Z,30.27
2023-02-24T11:31:52.103Z,31.48
2023-02-24T11:34:30.996Z,29.70
2023-02-24T11:37:01.515Z,31.05
2023-02-24T11:39:53.673Z,28.48
2023-02-24T11:42:27.157Z,32.73
2023-02-24T11:45:03.527Z,29.40
2023-02-24T11:47:48.972Z,29.02
2023-02-24T11:50:39.918Z,29.67
2023-02-24T11:53:32.232Z,37.53
2023-02-24T11:56:10.089Z,33.23
2023-02-24T11:58:53.111Z,34.00
2023-02-24T12:01:48.392Z,28.70
2023-02-24T12:04:29.160Z,30.42
2023-02-24T12:07:08.518Z,31.30
2023-02-24T12:10:00.257Z,29.38
2023-02-24T12:12:47.154Z,29.55
2023-02-24T12:15:31.058Z,31.10
2023-02-24T12:18:16.816Z,26.98
2023-02-24T12:21:03.655Z,31.98
2023-02-24T12:23:40.357Z,31.95
2023-02-24T12:26:27.318Z,29.95
2023-02-24T12:28:57.660Z,33.08
2023-02-24T12:31:33.931Z,32.28
2023-02-24T12:34:12.179Z,35.95
2023-02-24T12:36:58.151Z,28.73
2023-02-24T12:39:27.384Z,35.28
2023-02-24T12:42:05.820Z,33.78
2023-02-24T12:44:52.614Z,30.55
2023-02-24T12:47:45.116Z,29.20
2023-02-24T12:50:53.060Z,35.45
2023-02-24T12:53:37.782Z,35.40
2023-02-24T12:56:08.025Z,35.08
2023-02-24T12:58:39.772Z,30.15
2023-02-24T13:01:12.264Z,34.97
2023-02-24T13:06:37.229Z,34.65
2023-02-24T13:09:33.937Z,31.48
2023-02-24T13:12:13.310Z,33.67
2023-02-24T13:14:42.248Z,33.25
2023-02-24T13:17:12.257Z,34.22
2023-02-24T13:19:41.575Z,30.42
2023-02-24T13:22:12.018Z,33.65
2023-02-24T13:24:54.839Z,39.25
2023-02-24T13:27:33.962Z,33.08
2023-02-24T13:30:17.981Z,31.73
2023-02-24T13:33:19.164Z,30.65
2023-02-24T13:35:49.314Z,31.60
2023-02-24T13:38:32.188Z,29.95
2023-02-24T13:43:56.038Z,30.48
2023-02-24T13:46:23.757Z,32.72
2023-02-24T13:49:01.215Z,33.05
2023-02-24T13:51:49.427Z,35.25
2023-02-24T13:54:37.955Z,32.60
2023-02-24T13:57:39.601Z,30.35
2023-02-24T14:00:39.199Z,31.77
2023-02-24T14:03:20.886Z,26.85
2023-02-24T14:05:50.351Z,27.13
2023-02-24T14:08:30.067Z,26.73
2023-02-24T14:10:59.097Z,32.33
2023-02-24T14:13:30.111Z,31.70
2023-02-24T14:15:59.693Z,29.90
2023-02-24T14:18:29.406Z,28.88
2023-02-24T14:20:58.173Z,32.65
2023-02-24T14:23:32.091Z,29.33
2023-02-24T14:26:05.704Z,30.40
2023-02-24T14:28:36.769Z,27.88
2023-02-24T14:31:14.818Z,28.75
2023-02-24T14:33:44.398Z,29.83
2023-02-24T14:36:23.883Z,35.05
2023-02-24T14:39:10.287Z,27.48
2023-02-24T14:41:38.023Z,32.33
2023-02-24T14:44:31.592Z,31.75
2023-02-24T14:47:04.198Z,31.40
2023-02-24T14:52:03.086Z,26.52
2023-02-24T14:54:45.710Z,28.75
2023-02-24T14:57:18.471Z,29.80
2023-02-24T15:02:22.240Z,27.27
2023-02-24T15:04:50.193Z,29.40
2023-02-24T15:07:33.759Z,32.63
2023-02-24T15:10:02.696Z,27.77
2023-02-24T15:12:44.930Z,30.20
2023-02-24T15:15:25.013Z,26.48
2023-02-24T15:18:00.220Z,35.92
2023-02-24T15:20:40.916Z,30.13
2023-02-24T15:23:26.975Z,30.83
2023-02-24T15:25:54.764Z,28.63
2023-02-24T15:28:34.050Z,29.27
2023-02-24T15:31:01.488Z,31.15
2023-02-24T15:33:38.815Z,34.45
2023-02-24T15:36:11.881Z,31.67
2023-02-24T15:38:42.326Z,33.08
2023-02-24T15:41:12.090Z,31.73
2023-02-24T15:43:47.972Z,30.67
2023-02-24T15:46:28.649Z,26.70
2023-02-24T15:48:57.645Z,30.75
2023-02-24T15:51:49.297Z,26.30
2023-02-24T15:54:42.739Z,32.00
2023-02-24T15:57:13.095Z,29.88
2023-02-24T15:59:40.860Z,38.75
2023-02-24T16:02:18.474Z,37.80
2023-02-24T16:04:47.036Z,32.00
2023-02-24T16:07:35.792Z,37.30
2023-02-24T16:10:04.064Z,34.60
2023-02-24T16:12:43.041Z,34.75
2023-02-24T16:15:18.992Z,37.28
2023-02-24T16:17:47.248Z,34.13
2023-02-24T16:20:27.918Z,34.40
2023-02-24T16:22:57.655Z,35.33
2023-02-24T16:25:26.613Z,40.78
2023-02-24T16:27:57.497Z,41.65
2023-02-24T16:30:30.607Z,47.00
2023-02-24T16:32:59.951Z,44.22
2023-02-24T16:35:28.785Z,44.20
2023-02-24T16:37:56.852Z,34.38
2023-02-24T16:40:37.436Z,34.05
2023-02-24T16:43:05.339Z,36.67
2023-02-24T16:45:34.958Z,33.50
2023-02-24T16:48:07.338Z,32.40
2023-02-24T16:50:39.278Z,36.90
2023-02-24T16:53:08.170Z,36.10
2023-02-24T16:55:35.859Z,40.13
2023-02-24T16:58:03.043Z,42.35
2023-02-24T17:00:30.517Z,44.17
2023-02-24T17:02:58.340Z,48.08
2023-02-24T17:05:27.276Z,52.05
2023-02-24T17:07:58.902Z,53.30
2023-02-24T17:10:26.614Z,54.83
2023-02-24T17:12:59.542Z,53.20
2023-02-24T17:15:27.870Z,48.20
2023-02-24T17:17:55.683Z,46.50
2023-02-24T17:20:23.709Z,52.28
2023-02-24T17:22:50.923Z,52.97
2023-02-24T17:25:25.041Z,73.60
2023-02-24T17:27:55.318Z,66.30
2023-02-24T17:30:31.731Z,62.67
2023-02-24T17:32:59.845Z,59.78
2023-02-24T17:35:28.455Z,56.78
2023-02-24T17:37:55.859Z,56.53
2023-02-24T17:40:23.329Z,54.42
2023-02-24T17:42:51.491Z,60.78
2023-02-24T17:45:19.677Z,48.33
2023-02-24T17:47:47.109Z,45.13
2023-02-24T17:50:14.974Z,51.40
2023-02-24T17:52:42.950Z,47.60
2023-02-24T17:55:11.046Z,48.45
2023-02-24T17:57:40.245Z,47.97
2023-02-24T18:00:09.834Z,42.58
2023-02-24T18:02:40.782Z,42.20
2023-02-24T18:05:10.812Z,43.47
2023-02-24T18:07:38.527Z,33.85
2023-02-24T18:10:12.230Z,30.42
2023-02-24T18:12:43.153Z,28.70
2023-02-24T18:15:13.008Z,28.88
2023-02-24T18:17:41.248Z,21.95
2023-02-24T18:20:12.319Z,31.08
2023-02-24T18:22:40.206Z,26.77
2023-02-24T18:25:08.547Z,22.25
2023-02-24T18:27:38.475Z,28.95
2023-02-24T18:30:07.235Z,46.58
2023-02-24T18:32:36.442Z,24.98
2023-02-24T18:35:08.352Z,25.30
2023-02-24T18:37:37.100Z,26.35
2023-02-24T18:40:05.813Z,25.23
2023-02-24T18:42:34.030Z,25.05
2023-02-24T18:45:02.141Z,47.97
2023-02-24T18:47:30.366Z,46.10
2023-02-24T18:49:58.573Z,45.95
2023-02-24T18:52:27.156Z,31.88
2023-02-24T18:54:56.783Z,29.33
2023-02-24T18:57:25.105Z,22.45
2023-02-24T18:59:53.481Z,23.75
2023-02-24T19:02:22.076Z,25.50
2023-02-24T19:04:50.304Z,23.08
2023-02-24T19:07:18.356Z,20.90
2023-02-24T19:09:51.594Z,22.80
2023-02-24T19:12:22.000Z,23.23
2023-02-24T19:14:53.681Z,20.42
2023-02-24T19:17:22.144Z,21.58
2023-02-24T19:19:50.175Z,25.60
2023-02-24T19:22:18.180Z,26.30
2023-02-24T19:24:49.770Z,23.60
2023-02-24T19:27:19.422Z,30.80
2023-02-24T19:29:48.332Z,23.73
2023-02-24T19:32:16.823Z,18.60
2023-02-24T19:34:46.392Z,19.85
2023-02-24T19:37:14.828Z,27.33
2023-02-24T19:39:43.343Z,20.55
2023-02-24T19:42:11.679Z,22.77
2023-02-24T19:44:39.255Z,22.48
2023-02-24T19:47:06.903Z,21.73
2023-02-24T19:49:34.720Z,17.50
2023-02-24T19:52:03.106Z,21.02
2023-02-24T19:54:31.094Z,21.73
2023-02-24T19:56:59.461Z,29.88
2023-02-24T19:59:28.560Z,34.17
2023-02-24T20:01:57.077Z,32.72
2023-02-24T20:04:25.619Z,31.58
2023-02-24T20:06:54.247Z,30.95
2023-02-24T20:09:23.947Z,25.08
2023-02-24T20:11:52.821Z,26.42
2023-02-24T20:14:41.473Z,21.60
2023-02-24T20:17:11.129Z,27.33
2023-02-24T20:19:40.278Z,17.83
2023-02-24T20:22:08.992Z,18.15
2023-02-24T20:24:37.882Z,18.65
2023-02-24T20:27:06.054Z,18.80
2023-02-24T20:29:38.413Z,19.55
2023-02-24T20:32:09.539Z,14.80
2023-02-24T20:34:42.701Z,16.92
2023-02-24T20:37:11.291Z,14.70
2023-02-24T20:39:40.591Z,15.82
2023-02-24T20:42:09.393Z,15.80
2023-02-24T20:44:37.334Z,15.07
2023-02-24T20:47:05.588Z,13.68
2023-02-24T20:49:34.009Z,13.27
2023-02-24T20:52:01.985Z,16.42
2023-02-24T20:54:30.294Z,16.42
2023-02-24T20:56:59.822Z,16.40
2023-02-24T20:59:28.185Z,19.48
2023-02-24T21:01:56.822Z,12.10
2023-02-24T21:04:27.380Z,14.60
2023-02-24T21:06:55.688Z,13.57
2023-02-24T21:09:24.121Z,16.38
2023-02-24T21:11:53.191Z,18.27
2023-02-24T21:14:22.570Z,15.50
2023-02-24T21:16:50.550Z,16.23
2023-02-24T21:19:23.481Z,11.85
2023-02-24T21:21:51.643Z,12.98
2023-02-24T21:24:19.369Z,11.68
2023-02-24T21:26:48.472Z,15.88
2023-02-24T21:29:16.528Z,15.88
2023-02-24T21:31:44.379Z,14.40
2023-02-24T21:34:12.623Z,14.23
2023-02-24T21:36:40.670Z,14.43
2023-02-24T21:39:08.416Z,15.07
2023-02-24T21:41:39.502Z,14.15
2023-02-24T21:44:07.427Z,13.70
2023-02-24T21:46:35.231Z,15.68
2023-02-24T21:49:03.150Z,14.35
2023-02-24T21:51:30.651Z,13.15
2023-02-24T21:53:58.799Z,15.45
2023-02-24T21:56:28.572Z,13.57
2023-02-24T21:59:04.836Z,17.38
2023-02-24T22:01:38.084Z,12.85
2023-02-24T22:04:09.369Z,15.73
2023-02-24T22:06:38.324Z,12.48
2023-02-24T22:09:08.279Z,14.40
2023-02-24T22:11:38.881Z,17.30
2023-02-24T22:14:11.288Z,16.80
2023-02-24T22:16:39.182Z,16.45
2023-02-24T22:19:07.937Z,17.13
2023-02-24T22:21:35.276Z,18.98
2023-02-24T22:24:03.646Z,23.38
2023-02-24T22:26:32.322Z,20.38
2023-02-24T22:29:00.743Z,18.52
2023-02-24T22:31:31.580Z,15.85
2023-02-24T22:33:59.908Z,15.23
2023-02-24T22:36:31.189Z,14.18
2023-02-24T22:38:59.824Z,20.13
2023-02-24T22:41:35.130Z,16.27
2023-02-24T22:44:04.653Z,15.73
2023-02-24T22:46:38.543Z,16.30
2023-02-24T22:49:06.824Z,14.75
2023-02-24T22:51:34.985Z,14.75
2023-02-24T22:54:02.715Z,17.27
2023-02-24T22:56:31.103Z,15.57
2023-02-24T22:58:59.496Z,16.42
2023-02-24T23:01:29.869Z,16.90
2023-02-24T23:04:01.282Z,15.25
2023-02-24T23:06:29.578Z,16.60
2023-02-24T23:08:59.283Z,12.88
2023-02-24T23:11:32.042Z,16.92
2023-02-24T23:16:31.971Z,16.83
2023-02-24T23:19:04.542Z,15.93
2023-02-24T23:21:38.058Z,19.80
2023-02-24T23:24:07.445Z,20.15
2023-02-24T23:26:38.449Z,17.88
2023-02-24T23:29:06.667Z,20.23
2023-02-24T23:31:34.447Z,19.70
2023-02-24T23:34:04.007Z,17.17
2023-02-24T23:36:31.575Z,19.85
2023-02-24T23:38:59.020Z,18.90
2023-02-24T23:41:26.682Z,20.77
2023-02-24T23:43:54.138Z,21.85
2023-02-24T23:46:22.105Z,23.45
2023-02-24T23:48:53.980Z,19.77
2023-02-24T23:51:21.664Z,19.08
2023-02-24T23:53:49.813Z,21.08
2023-02-24T23:56:23.119Z,22.35
2023-02-24T23:58:55.912Z,24.67
